»·PEaware :: QXE796 KMRY-O22

QXE796 :: KMRY-O22

FLIGHT INFORMATION

Flight Status: Arrived
Operator:
Horizon Air
More flights by this operator :: More flights under this callsign
Pilot: Kris A. (796)
Aircraft: DEHAVILLAND DASH 8 400
(DH8D)
More flights by this aircraft type
Origin: KMRY Monterey Peninsula
United States
Destination: O22 Columbia
United States
More flights between these airports :: More routes between these airports
Route: SNS PATYY ECA WRAPS
File this flight plan on PilotEdge
Remarks:
Altitude:
(Current/Filed)
17,500ft
Speed:
(Current/Filed)
280kts
Departed: 05-Nov-16 12:06 PM
Arrived: 05-Nov-16 12:37 PM
Distance/Time
Traveled:
110nm/0:30
Distance/Time
To Go:
Arrived

Flight Plot

Page will automatically refresh every two minutes.

Flight plan parsing failed; only flown route is shown


Map Options




Map Legend


Flown Route
Filed Route
Departure Airport
Arrival Airport
Navaid (VOR, NDB)
Fix

Horizontal Profiles

Position Reports

Time Latitude Longitude Heading Altitude Ground
Speed
05-Nov-16 11:43 36.587458 -121.850340 204 264ft 0kts
05-Nov-16 11:44 36.587458 -121.850340 204 264ft 0kts
05-Nov-16 11:45 36.587458 -121.850340 204 264ft 0kts
05-Nov-16 11:46 36.587615 -121.850322 145 264ft 2kts
05-Nov-16 11:47 36.587666 -121.850373 131 264ft 0kts
05-Nov-16 11:48 36.587666 -121.850373 131 264ft 0kts
05-Nov-16 11:49 36.587666 -121.850373 131 264ft 0kts
05-Nov-16 11:50 36.587666 -121.850373 131 264ft 0kts
05-Nov-16 11:51 36.587666 -121.850373 131 264ft 0kts
05-Nov-16 11:52 36.587666 -121.850373 131 264ft 0kts
05-Nov-16 11:53 36.587666 -121.850373 131 264ft 0kts
05-Nov-16 11:54 36.587283 -121.848321 111 264ft 18kts
05-Nov-16 11:55 36.585902 -121.844328 113 264ft 14kts
05-Nov-16 11:56 36.583522 -121.837566 113 264ft 25kts
05-Nov-16 11:57 36.582831 -121.834092 59 264ft 0kts
05-Nov-16 11:58 36.582831 -121.834092 59 264ft 0kts
05-Nov-16 11:59 36.582932 -121.833880 59 264ft 0kts
05-Nov-16 12:00 36.588247 -121.848041 288 493ft 135kts
05-Nov-16 12:01 36.610595 -121.902192 298 2790ft 201kts
05-Nov-16 12:02 36.658327 -121.927027 30 5334ft 220kts
05-Nov-16 12:03 36.672686 -121.855158 92 8004ft 229kts
05-Nov-16 12:04 36.669978 -121.773573 92 10381ft 239kts
05-Nov-16 12:05 36.667662 -121.703215 93 12250ft 247kts
05-Nov-16 12:06 36.671234 -121.616456 60 14237ft 261kts
05-Nov-16 12:07 36.739935 -121.552302 26 16208ft 271kts
05-Nov-16 12:08 36.796265 -121.515101 24 17347ft 282kts
05-Nov-16 12:09 36.869963 -121.466900 25 17480ft 312kts
05-Nov-16 12:10 36.948795 -121.414343 26 17482ft 328kts
05-Nov-16 12:11 37.030296 -121.359998 26 17481ft 335kts
05-Nov-16 12:12 37.113012 -121.304717 26 17482ft 338kts
05-Nov-16 12:13 37.196304 -121.248883 26 17482ft 340kts
05-Nov-16 12:14 37.279572 -121.192950 26 17480ft 341kts
05-Nov-16 12:15 37.363271 -121.136591 26 17472ft 341kts
05-Nov-16 12:16 37.447041 -121.080061 26 17472ft 341kts
05-Nov-16 12:17 37.536538 -121.065275 341 17472ft 331kts
05-Nov-16 12:18 37.625107 -121.097286 340 17471ft 331kts
05-Nov-16 12:19 37.713631 -121.128631 340 17473ft 331kts
05-Nov-16 12:20 37.801006 -121.121938 27 17059ft 310kts
05-Nov-16 12:21 37.842366 -121.031928 85 15339ft 302kts
05-Nov-16 12:22 37.849112 -120.927326 87 13824ft 294kts
05-Nov-16 12:23 37.855337 -120.825644 86 12343ft 287kts
05-Nov-16 12:24 37.881124 -120.732904 59 10654ft 280kts
05-Nov-16 12:25 37.920577 -120.650114 59 8854ft 268kts
05-Nov-16 12:26 37.954386 -120.577896 60 7523ft 210kts
05-Nov-16 12:27 37.983407 -120.515559 60 5276ft 201kts
05-Nov-16 12:28 38.010116 -120.461930 40 4405ft 167kts
05-Nov-16 12:29 38.051885 -120.442422 16 4388ft 139kts
05-Nov-16 12:30 38.056384 -120.407181 152 3733ft 133kts
05-Nov-16 12:31 38.028960 -120.413375 190 2125ft 11kts
05-Nov-16 12:32 38.028522 -120.413060 105 2125ft 0kts
05-Nov-16 12:33 38.028131 -120.411703 190 2125ft 2kts
05-Nov-16 12:34 38.028125 -120.411713 206 2125ft 0kts
05-Nov-16 12:35 38.028125 -120.411713 206 2125ft 0kts
05-Nov-16 12:36 38.028125 -120.411713 206 2125ft 0kts
05-Nov-16 12:37 38.028125 -120.411713 206 2125ft 0kts

Navigation Log

Ident Type
Flight plan parsing failed, navigation log unavailable